createdAt,value
2018-05-02T00:01:56.334Z,9.97
2018-05-02T00:04:22.394Z,9.43
2018-05-02T00:06:48.449Z,10.83
2018-05-02T00:09:14.465Z,11.20
2018-05-02T00:11:40.514Z,11.10
2018-05-02T00:14:06.574Z,10.57
2018-05-02T00:16:32.609Z,9.80
2018-05-02T00:18:58.865Z,10.20
2018-05-02T00:21:24.913Z,10.20
2018-05-02T00:23:50.953Z,10.37
2018-05-02T00:26:16.997Z,10.30
2018-05-02T00:28:43.109Z,10.40
2018-05-02T00:31:09.197Z,9.97
2018-05-02T00:33:35.261Z,9.87
2018-05-02T00:36:01.403Z,10.00
2018-05-02T00:38:27.462Z,10.13
2018-05-02T00:40:53.554Z,10.13
2018-05-02T00:43:19.608Z,10.63
2018-05-02T00:45:45.779Z,9.90
2018-05-02T00:48:11.808Z,10.47
2018-05-02T00:50:38.001Z,9.17
2018-05-02T00:53:04.011Z,9.60
2018-05-02T00:55:30.213Z,9.43
2018-05-02T00:57:56.290Z,10.20
2018-05-02T01:00:22.326Z,10.50
2018-05-02T01:02:48.525Z,10.00
2018-05-02T01:05:14.903Z,10.13
2018-05-02T01:07:41.005Z,9.90
2018-05-02T01:10:07.246Z,9.90
2018-05-02T01:12:33.270Z,9.53
2018-05-02T01:14:59.280Z,10.40
2018-05-02T01:17:25.325Z,9.80
2018-05-02T01:19:51.377Z,8.97
2018-05-02T01:22:17.449Z,9.37
2018-05-02T01:24:43.476Z,9.03
2018-05-02T01:27:09.496Z,9.33
2018-05-02T01:29:35.501Z,9.23
2018-05-02T01:32:01.602Z,8.90
2018-05-02T01:34:27.681Z,9.00
2018-05-02T01:36:53.961Z,9.00
2018-05-02T01:39:20.005Z,8.93
2018-05-02T01:41:46.029Z,9.17
2018-05-02T01:44:12.167Z,8.83
2018-05-02T01:46:38.237Z,10.00
2018-05-02T01:49:17.181Z,9.00
2018-05-02T01:51:43.934Z,8.47
2018-05-02T01:54:10.025Z,9.40
2018-05-02T01:56:36.346Z,9.20
2018-05-02T01:59:02.404Z,9.03
2018-05-02T02:01:28.462Z,9.07
2018-05-02T02:03:54.489Z,9.33
2018-05-02T02:06:20.527Z,8.93
2018-05-02T02:08:46.629Z,8.77
2018-05-02T02:11:12.985Z,8.80
2018-05-02T02:13:39.063Z,8.17
2018-05-02T02:16:05.152Z,8.70
2018-05-02T02:18:31.198Z,9.03
2018-05-02T02:20:57.245Z,8.43
2018-05-02T02:23:23.433Z,8.17
2018-05-02T02:25:49.746Z,8.93
2018-05-02T02:28:15.789Z,8.80
2018-05-02T02:30:41.823Z,8.63
2018-05-02T02:33:08.645Z,8.70
2018-05-02T02:35:34.670Z,8.50
2018-05-02T02:38:00.712Z,8.50
2018-05-02T02:40:26.762Z,8.23
2018-05-02T02:42:52.794Z,8.77
2018-05-02T02:45:18.870Z,8.10
2018-05-02T02:47:44.882Z,8.57
2018-05-02T02:50:11.181Z,7.80
2018-05-02T02:52:37.257Z,8.13
2018-05-02T02:55:03.345Z,8.23
2018-05-02T02:57:29.394Z,8.13
2018-05-02T02:59:55.457Z,7.90
2018-05-02T03:02:21.502Z,8.33
2018-05-02T03:04:47.580Z,8.80
2018-05-02T03:07:13.665Z,8.20
2018-05-02T03:09:39.737Z,8.48
2018-05-02T03:12:05.819Z,8.60
2018-05-02T03:14:31.854Z,8.37
2018-05-02T03:16:57.914Z,8.07
2018-05-02T03:19:24.001Z,7.80
2018-05-02T03:21:50.073Z,8.30
2018-05-02T03:24:16.129Z,8.27
2018-05-02T03:26:42.179Z,9.02
2018-05-02T03:29:08.257Z,8.73
2018-05-02T03:31:34.286Z,8.75
2018-05-02T03:34:00.340Z,8.43
2018-05-02T03:36:26.665Z,8.50
2018-05-02T03:38:52.703Z,8.95
2018-05-02T03:41:19.513Z,8.02
2018-05-02T03:43:45.638Z,8.63
2018-05-02T03:46:11.689Z,9.70
2018-05-02T03:48:37.713Z,8.27
2018-05-02T03:51:03.761Z,9.20
2018-05-02T03:53:29.806Z,9.15
2018-05-02T03:55:55.845Z,8.48
2018-05-02T03:58:22.113Z,9.73
2018-05-02T04:01:00.345Z,9.18
2018-05-02T04:03:39.115Z,9.02
2018-05-02T04:06:27.957Z,8.77
2018-05-02T04:08:53.997Z,9.93
2018-05-02T04:11:20.112Z,9.20
2018-05-02T04:13:46.205Z,8.90
2018-05-02T04:16:12.260Z,9.90
2018-05-02T04:18:39.096Z,9.93
2018-05-02T04:21:05.148Z,9.23
2018-05-02T04:23:31.208Z,9.65
2018-05-02T04:25:57.513Z,9.15
2018-05-02T04:28:23.580Z,10.50
2018-05-02T04:30:49.811Z,9.25
2018-05-02T04:33:15.870Z,9.65
2018-05-02T04:35:41.924Z,9.13
2018-05-02T04:38:07.941Z,10.00
2018-05-02T04:40:34.465Z,9.70
2018-05-02T04:43:00.498Z,9.98
2018-05-02T04:45:26.589Z,9.43
2018-05-02T04:47:53.356Z,8.88
2018-05-02T04:50:19.376Z,9.27
2018-05-02T04:52:45.457Z,9.25
2018-05-02T04:55:11.505Z,8.80
2018-05-02T04:57:38.361Z,9.35
2018-05-02T05:00:04.389Z,8.53
2018-05-02T05:02:30.425Z,9.27
2018-05-02T05:04:56.489Z,8.50
2018-05-02T05:07:22.529Z,8.63
2018-05-02T05:09:48.602Z,8.63
2018-05-02T05:12:14.714Z,9.00
2018-05-02T05:14:40.686Z,8.57
2018-05-02T05:17:06.745Z,8.55
2018-05-02T05:19:32.821Z,8.05
2018-05-02T05:21:58.897Z,8.48
2018-05-02T05:24:24.953Z,7.97
2018-05-02T05:26:52.006Z,7.97
2018-05-02T05:29:18.051Z,7.67
2018-05-02T05:31:44.109Z,8.03
2018-05-02T05:34:10.950Z,7.43
2018-05-02T05:36:37.005Z,7.50
2018-05-02T05:39:03.036Z,7.60
2018-05-02T05:41:29.057Z,7.70
2018-05-02T05:43:55.087Z,7.03
2018-05-02T05:46:21.177Z,6.50
2018-05-02T05:48:47.227Z,6.80
2018-05-02T05:51:13.585Z,6.13
2018-05-02T05:53:39.601Z,6.80
2018-05-02T05:56:05.729Z,6.40
2018-05-02T05:58:31.813Z,6.83
2018-05-02T06:00:58.590Z,6.07
2018-05-02T06:03:24.633Z,6.53
2018-05-02T06:05:50.662Z,5.67
2018-05-02T06:08:16.741Z,5.87
2018-05-02T06:10:42.820Z,5.53
2018-05-02T06:13:08.952Z,5.57
2018-05-02T06:15:34.973Z,5.80
2018-05-02T06:18:00.997Z,5.73
2018-05-02T06:20:27.013Z,5.47
2018-05-02T06:22:53.039Z,5.63
2018-05-02T06:25:19.107Z,4.70
2018-05-02T06:27:45.661Z,4.87
2018-05-02T06:30:11.729Z,5.10
2018-05-02T06:32:37.774Z,5.07
2018-05-02T06:35:04.593Z,5.23
2018-05-02T06:37:30.656Z,5.00
2018-05-02T06:39:57.449Z,5.17
2018-05-02T06:42:23.465Z,4.80
2018-05-02T06:44:49.488Z,5.07
2018-05-02T06:47:15.914Z,4.97
2018-05-02T06:49:41.985Z,5.10
2018-05-02T06:52:08.019Z,4.90
2018-05-02T06:54:34.806Z,4.60
2018-05-02T06:57:00.818Z,4.47
2018-05-02T06:59:26.867Z,4.50
2018-05-02T07:01:53.879Z,4.50
2018-05-02T07:04:19.942Z,4.23
2018-05-02T07:06:45.999Z,4.00
2018-05-02T07:09:12.029Z,4.40
2018-05-02T07:11:38.785Z,4.00
2018-05-02T07:14:05.269Z,3.83
2018-05-02T07:16:31.334Z,3.73
2018-05-02T07:18:57.372Z,3.67
2018-05-02T07:21:23.410Z,3.87
2018-05-02T07:23:49.753Z,3.53
2018-05-02T07:26:15.809Z,3.20
2018-05-02T07:28:42.019Z,3.27
2018-05-02T07:31:08.043Z,3.40
2018-05-02T07:33:34.661Z,3.37
2018-05-02T07:36:00.686Z,3.20
2018-05-02T07:38:26.768Z,3.23
2018-05-02T07:40:53.654Z,3.70
2018-05-02T07:43:20.397Z,3.50
2018-05-02T07:45:46.429Z,3.40
2018-05-02T07:48:12.441Z,3.80
2018-05-02T07:50:38.492Z,3.37
2018-05-02T07:53:04.645Z,3.60
2018-05-02T07:55:30.674Z,3.07
2018-05-02T07:57:56.753Z,3.20
2018-05-02T08:00:22.797Z,3.23
2018-05-02T08:02:48.865Z,3.00
2018-05-02T08:05:14.930Z,2.90
2018-05-02T08:07:40.961Z,2.70
2018-05-02T08:10:07.029Z,3.03
2018-05-02T08:12:33.063Z,2.47
2018-05-02T08:14:59.201Z,2.80
2018-05-02T08:17:25.242Z,2.60
2018-05-02T08:19:51.289Z,2.50
2018-05-02T08:22:17.314Z,2.37
2018-05-02T08:24:43.377Z,2.50
2018-05-02T08:27:09.470Z,2.50
2018-05-02T08:29:35.515Z,2.60
2018-05-02T08:32:01.526Z,3.10
2018-05-02T08:34:27.573Z,2.90
2018-05-02T08:36:54.808Z,3.00
2018-05-02T08:39:20.868Z,3.17
2018-05-02T08:41:47.658Z,3.00
2018-05-02T08:44:13.860Z,2.50
2018-05-02T08:46:39.884Z,2.60
2018-05-02T08:49:05.937Z,2.40
2018-05-02T08:51:32.605Z,3.10
2018-05-02T08:53:58.633Z,3.80
2018-05-02T08:56:25.436Z,3.90
2018-05-02T08:58:51.469Z,3.30
2018-05-02T09:01:17.509Z,4.70
2018-05-02T09:03:43.584Z,3.20
2018-05-02T09:06:10.350Z,5.97
2018-05-02T09:08:37.157Z,5.70
2018-05-02T09:11:03.290Z,7.97
2018-05-02T09:13:29.265Z,8.70
2018-05-02T09:15:55.273Z,9.27
2018-05-02T09:18:22.060Z,9.97
2018-05-02T09:20:48.138Z,9.40
2018-05-02T09:23:14.185Z,6.77
2018-05-02T09:25:40.234Z,5.00
2018-05-02T09:28:06.583Z,6.53
2018-05-02T09:30:32.625Z,5.83
2018-05-02T09:32:58.685Z,5.67
2018-05-02T09:35:25.569Z,5.47
2018-05-02T09:37:51.692Z,4.93
2018-05-02T09:40:17.777Z,5.00
2018-05-02T09:42:43.912Z,6.90
2018-05-02T09:45:10.027Z,7.10
2018-05-02T09:47:36.329Z,6.40
2018-05-02T09:50:02.337Z,8.83
2018-05-02T09:52:28.721Z,8.40
2018-05-02T09:54:54.734Z,7.17
2018-05-02T09:57:20.781Z,13.33
2018-05-02T09:59:46.858Z,13.63
2018-05-02T10:02:12.890Z,15.23
2018-05-02T10:04:39.066Z,13.53
2018-05-02T10:07:05.187Z,12.50
2018-05-02T10:09:31.245Z,10.20
2018-05-02T10:11:57.317Z,7.10
2018-05-02T10:14:23.895Z,6.83
2018-05-02T10:16:49.968Z,5.73
2018-05-02T10:19:15.985Z,4.93
2018-05-02T10:21:42.086Z,4.80
2018-05-02T10:24:08.153Z,6.67
2018-05-02T10:26:34.229Z,6.60
2018-05-02T10:29:00.327Z,5.90
2018-05-02T10:31:27.089Z,5.03
2018-05-02T10:33:53.552Z,5.57
2018-05-02T10:36:19.605Z,5.60
2018-05-02T10:38:45.758Z,5.77
2018-05-02T10:41:11.832Z,5.20
2018-05-02T10:43:38.277Z,3.77
2018-05-02T10:46:04.305Z,3.60
2018-05-02T10:48:30.337Z,2.93
2018-05-02T10:50:56.399Z,2.90
2018-05-02T10:53:22.504Z,2.77
2018-05-02T10:55:48.542Z,2.83
2018-05-02T10:58:14.577Z,2.40
2018-05-02T11:00:40.646Z,2.67
2018-05-02T11:03:06.682Z,2.40
2018-05-02T11:05:32.745Z,2.73
2018-05-02T11:07:58.790Z,2.97
2018-05-02T11:10:24.821Z,2.63
2018-05-02T11:12:51.001Z,2.20
2018-05-02T11:15:17.034Z,2.47
2018-05-02T11:17:43.211Z,2.10
2018-05-02T11:20:09.235Z,2.30
2018-05-02T11:22:35.319Z,2.27
2018-05-02T11:25:01.350Z,2.10
2018-05-02T11:27:27.499Z,2.20
2018-05-02T11:29:53.922Z,2.40
2018-05-02T11:32:19.952Z,2.67
2018-05-02T11:34:46.028Z,2.60
2018-05-02T11:37:12.028Z,2.53
2018-05-02T11:39:38.239Z,2.57
2018-05-02T11:42:04.482Z,3.23
2018-05-02T11:44:30.449Z,4.00
2018-05-02T11:46:56.608Z,4.40
2018-05-02T11:49:22.645Z,4.00
2018-05-02T11:51:48.665Z,7.50
2018-05-02T11:54:15.385Z,9.40
2018-05-02T11:56:41.614Z,9.50
2018-05-02T11:59:07.659Z,12.30
2018-05-02T12:01:33.764Z,10.03
2018-05-02T12:03:59.972Z,8.70
2018-05-02T12:06:26.029Z,6.10
2018-05-02T12:08:52.077Z,8.97
2018-05-02T12:11:18.112Z,9.73
2018-05-02T12:13:44.191Z,9.00
2018-05-02T12:16:10.247Z,9.07
2018-05-02T12:18:36.301Z,7.50
2018-05-02T12:21:02.325Z,6.50
2018-05-02T12:23:29.318Z,5.23
2018-05-02T12:25:55.361Z,5.17
2018-05-02T12:28:21.416Z,2.97
2018-05-02T12:30:47.481Z,3.57
2018-05-02T12:33:13.582Z,3.30
2018-05-02T12:35:39.661Z,3.63
2018-05-02T12:38:05.733Z,3.23
2018-05-02T12:40:31.757Z,2.83
2018-05-02T12:42:57.825Z,2.30
2018-05-02T12:45:23.961Z,2.13
2018-05-02T12:47:50.714Z,4.03
2018-05-02T12:50:16.844Z,5.80
2018-05-02T12:52:42.890Z,6.70
2018-05-02T12:55:09.702Z,5.33
2018-05-02T12:57:35.753Z,3.60
2018-05-02T13:00:02.546Z,3.10
2018-05-02T13:02:28.637Z,2.80
2018-05-02T13:04:54.633Z,3.13
2018-05-02T13:07:20.722Z,4.40
2018-05-02T13:09:46.744Z,5.47
2018-05-02T13:12:12.761Z,6.77
2018-05-02T13:14:38.826Z,6.87
2018-05-02T13:17:04.847Z,5.20
2018-05-02T13:19:30.917Z,4.27
2018-05-02T13:21:57.518Z,4.80
2018-05-02T13:24:23.557Z,4.50
2018-05-02T13:26:49.629Z,4.53
2018-05-02T13:29:15.769Z,3.20
2018-05-02T13:31:41.829Z,2.90
2018-05-02T13:34:07.882Z,3.30
2018-05-02T13:36:33.918Z,4.20
2018-05-02T13:39:00.090Z,4.20
2018-05-02T13:41:26.131Z,4.00
2018-05-02T13:43:52.212Z,3.17
2018-05-02T13:46:18.624Z,2.97
2018-05-02T13:48:44.637Z,3.50
2018-05-02T13:51:10.962Z,3.57
2018-05-02T13:53:37.721Z,3.73
2018-05-02T13:56:03.790Z,3.40
2018-05-02T13:58:29.829Z,4.17
2018-05-02T14:00:55.933Z,5.60
2018-05-02T14:03:21.909Z,4.13
2018-05-02T14:05:47.943Z,3.53
2018-05-02T14:08:14.104Z,3.60
2018-05-02T14:10:40.065Z,3.17
2018-05-02T14:13:06.112Z,2.93
2018-05-02T14:15:32.169Z,2.63
2018-05-02T14:17:58.204Z,3.47
2018-05-02T14:20:24.381Z,4.10
2018-05-02T14:22:50.422Z,3.47
2018-05-02T14:25:16.489Z,2.60
2018-05-02T14:27:42.557Z,2.80
2018-05-02T14:30:08.883Z,2.60
2018-05-02T14:32:34.917Z,2.90
2018-05-02T14:35:01.337Z,2.97
2018-05-02T14:37:27.357Z,2.57
2018-05-02T14:39:53.444Z,2.80
2018-05-02T14:42:19.562Z,10.97
2018-05-02T14:44:45.665Z,7.97
2018-05-02T14:47:11.720Z,6.63
2018-05-02T14:49:37.761Z,4.33
2018-05-02T14:52:04.597Z,3.73
2018-05-02T14:54:30.647Z,3.60
2018-05-02T14:56:57.404Z,4.10
2018-05-02T14:59:23.413Z,5.97
2018-05-02T15:01:49.657Z,8.37
2018-05-02T15:04:15.844Z,5.40
2018-05-02T15:06:41.939Z,5.00
2018-05-02T15:09:07.997Z,3.57
2018-05-02T15:11:34.001Z,2.70
2018-05-02T15:14:00.086Z,2.60
2018-05-02T15:16:26.210Z,2.57
2018-05-02T15:18:52.229Z,2.17
2018-05-02T15:21:18.247Z,2.60
2018-05-02T15:23:44.362Z,2.40
2018-05-02T15:26:10.525Z,2.43
2018-05-02T15:28:36.733Z,2.90
2018-05-02T15:31:02.769Z,2.60
2018-05-02T15:33:28.814Z,2.80
2018-05-02T15:35:54.857Z,2.57
2018-05-02T15:38:21.016Z,2.30
2018-05-02T15:40:47.091Z,2.30
2018-05-02T15:43:13.178Z,2.50
2018-05-02T15:45:39.221Z,2.50
2018-05-02T15:48:05.268Z,2.50
2018-05-02T15:50:31.785Z,2.43
2018-05-02T15:52:58.199Z,2.50
2018-05-02T15:55:24.181Z,2.53
2018-05-02T15:57:50.209Z,2.40
2018-05-02T16:00:16.697Z,1.97
2018-05-02T16:02:42.856Z,2.00
2018-05-02T16:05:08.912Z,2.10
2018-05-02T16:07:35.242Z,1.90
2018-05-02T16:10:01.389Z,2.10
2018-05-02T16:12:27.317Z,2.23
2018-05-02T16:14:53.369Z,2.57
2018-05-02T16:17:19.414Z,2.30
2018-05-02T16:19:45.821Z,2.03
2018-05-02T16:22:12.004Z,2.27
2018-05-02T16:24:37.978Z,2.27
2018-05-02T16:27:03.998Z,2.67
2018-05-02T16:29:30.092Z,2.97
2018-05-02T16:31:56.198Z,3.10
2018-05-02T16:34:22.220Z,2.30
2018-05-02T16:36:48.893Z,2.20
2018-05-02T16:39:14.947Z,2.13
2018-05-02T16:41:41.010Z,2.30
2018-05-02T16:44:07.781Z,2.20
2018-05-02T16:46:33.854Z,2.37
2018-05-02T16:48:59.901Z,2.57
2018-05-02T16:51:25.914Z,2.73
2018-05-02T16:53:51.957Z,2.53
2018-05-02T16:56:18.014Z,2.73
2018-05-02T16:58:44.197Z,2.53
2018-05-02T17:01:10.218Z,2.40
2018-05-02T17:03:36.393Z,2.10
2018-05-02T17:06:02.422Z,1.93
2018-05-02T17:08:28.490Z,2.23
2018-05-02T17:10:54.661Z,2.60
2018-05-02T17:13:20.707Z,2.97
2018-05-02T17:15:46.741Z,2.73
2018-05-02T17:18:12.765Z,2.70
2018-05-02T17:20:38.817Z,2.47
2018-05-02T17:23:04.890Z,2.30
2018-05-02T17:25:30.901Z,2.40
2018-05-02T17:27:57.237Z,2.57
2018-05-02T17:30:23.877Z,2.43
2018-05-02T17:32:49.930Z,2.50
2018-05-02T17:35:16.071Z,2.40
2018-05-02T17:37:42.197Z,2.50
2018-05-02T17:40:08.241Z,2.47
2018-05-02T17:42:34.263Z,2.70
2018-05-02T17:45:00.305Z,2.50
2018-05-02T17:47:26.381Z,2.20
2018-05-02T17:49:52.397Z,2.30
2018-05-02T17:52:18.432Z,2.40
2018-05-02T17:54:44.485Z,2.47
2018-05-02T17:57:10.529Z,2.47
2018-05-02T17:59:36.979Z,2.30
2018-05-02T18:02:03.006Z,2.70
2018-05-02T18:04:29.042Z,2.80
2018-05-02T18:06:55.258Z,2.73
2018-05-02T18:09:21.307Z,2.90
2018-05-02T18:11:47.422Z,2.50
2018-05-02T18:14:13.473Z,2.80
2018-05-02T18:16:39.536Z,2.80
2018-05-02T18:19:05.629Z,2.57
2018-05-02T18:21:31.797Z,3.20
2018-05-02T18:23:57.855Z,2.77
2018-05-02T18:26:23.898Z,2.67
2018-05-02T18:28:49.941Z,2.80
2018-05-02T18:31:15.992Z,2.90
2018-05-02T18:33:42.066Z,2.60
2018-05-02T18:36:08.365Z,2.73
2018-05-02T18:38:34.385Z,2.70
2018-05-02T18:41:00.436Z,2.73
2018-05-02T18:43:26.501Z,2.40
2018-05-02T18:45:52.561Z,3.00
2018-05-02T18:48:18.613Z,2.87
2018-05-02T18:50:44.785Z,2.60
2018-05-02T18:53:10.829Z,2.70
2018-05-02T18:55:37.593Z,2.70
2018-05-02T18:58:03.653Z,2.53
2018-05-02T19:00:29.701Z,2.40
2018-05-02T19:02:55.869Z,1.97
2018-05-02T19:05:21.941Z,1.90
2018-05-02T19:07:48.704Z,2.40
2018-05-02T19:10:14.788Z,2.20
2018-05-02T19:12:40.817Z,2.00
2018-05-02T19:15:07.197Z,1.90
2018-05-02T19:17:33.562Z,1.90
2018-05-02T19:20:05.774Z,1.93
2018-05-02T19:22:31.815Z,2.17
2018-05-02T19:25:03.888Z,2.20
2018-05-02T19:27:29.938Z,2.40
2018-05-02T19:29:56.060Z,2.13
2018-05-02T19:32:28.090Z,2.00
2018-05-02T19:34:54.206Z,2.00
2018-05-02T19:37:20.209Z,1.97
2018-05-02T19:39:52.850Z,2.37
2018-05-02T19:42:24.937Z,2.20
2018-05-02T19:44:51.189Z,2.40
2018-05-02T19:47:17.221Z,2.33
2018-05-02T19:49:43.285Z,2.40
2018-05-02T19:52:15.329Z,2.53
2018-05-02T19:54:41.385Z,2.10
2018-05-02T19:57:07.417Z,2.90
2018-05-02T19:59:33.493Z,2.70
2018-05-02T20:02:05.672Z,2.60
2018-05-02T20:04:31.857Z,2.60
2018-05-02T20:06:57.866Z,2.80
2018-05-02T20:09:30.777Z,2.40
2018-05-02T20:12:03.165Z,2.67
2018-05-02T20:14:29.531Z,2.83
2018-05-02T20:16:55.592Z,2.80
2018-05-02T20:19:21.616Z,2.63
2018-05-02T20:21:47.669Z,2.83
2018-05-02T20:24:14.424Z,2.77
2018-05-02T20:26:40.485Z,2.80
2018-05-02T20:29:06.577Z,3.00
2018-05-02T20:31:32.597Z,3.20
2018-05-02T20:33:58.657Z,3.10
2018-05-02T20:36:24.752Z,3.00
2018-05-02T20:38:50.790Z,3.00
2018-05-02T20:41:16.898Z,3.07
2018-05-02T20:43:42.930Z,2.90
2018-05-02T20:46:09.000Z,3.00
2018-05-02T20:48:35.053Z,3.20
2018-05-02T20:51:01.095Z,2.73
2018-05-02T20:53:27.548Z,2.90
2018-05-02T20:55:53.621Z,3.20
2018-05-02T20:58:19.638Z,2.77
2018-05-02T21:00:45.716Z,3.03
2018-05-02T21:03:12.364Z,4.03
2018-05-02T21:05:38.449Z,4.73
2018-05-02T21:08:04.497Z,4.63
2018-05-02T21:10:30.673Z,5.40
2018-05-02T21:12:56.710Z,5.77
2018-05-02T21:15:22.734Z,5.40
2018-05-02T21:17:48.825Z,5.20
2018-05-02T21:20:14.936Z,5.90
2018-05-02T21:22:41.005Z,5.50
2018-05-02T21:25:07.029Z,5.47
2018-05-02T21:27:33.053Z,5.40
2018-05-02T21:29:59.365Z,5.20
2018-05-02T21:32:25.429Z,5.13
2018-05-02T21:34:51.441Z,5.07
2018-05-02T21:37:17.484Z,4.93
2018-05-02T21:39:43.499Z,4.87
2018-05-02T21:42:10.325Z,4.50
2018-05-02T21:44:36.709Z,3.67
2018-05-02T21:47:02.781Z,3.77
2018-05-02T21:49:28.809Z,3.10
2018-05-02T21:51:54.823Z,2.67
2018-05-02T21:54:21.089Z,3.27
2018-05-02T21:56:47.056Z,2.50
2018-05-02T21:59:13.088Z,2.43
2018-05-02T22:01:39.161Z,2.70
2018-05-02T22:04:05.933Z,2.53
2018-05-02T22:06:32.230Z,2.97
2018-05-02T22:08:58.341Z,3.10
2018-05-02T22:11:24.560Z,3.03
2018-05-02T22:13:50.597Z,3.00
2018-05-02T22:16:17.277Z,3.20
2018-05-02T22:18:43.350Z,3.40
2018-05-02T22:21:09.365Z,3.20
2018-05-02T22:23:35.961Z,3.10
2018-05-02T22:26:02.181Z,3.23
2018-05-02T22:28:28.217Z,3.60
2018-05-02T22:30:54.382Z,3.20
2018-05-02T22:33:20.541Z,3.30
2018-05-02T22:35:47.312Z,3.10
2018-05-02T22:38:13.390Z,3.30
2018-05-02T22:40:39.969Z,2.93
2018-05-02T22:43:06.089Z,3.40
2018-05-02T22:45:32.132Z,3.80
2018-05-02T22:47:58.197Z,3.50
2018-05-02T22:50:24.360Z,3.50
2018-05-02T22:52:50.390Z,3.50
2018-05-02T22:55:16.553Z,3.60
2018-05-02T22:57:42.597Z,3.80
2018-05-02T23:00:08.613Z,3.80
2018-05-02T23:02:35.211Z,3.90
2018-05-02T23:05:01.438Z,4.20
2018-05-02T23:07:27.474Z,4.00
2018-05-02T23:09:53.537Z,4.17
2018-05-02T23:12:19.680Z,4.03
2018-05-02T23:14:45.973Z,4.20
2018-05-02T23:17:12.017Z,4.73
2018-05-02T23:19:38.064Z,4.77
2018-05-02T23:22:04.842Z,5.00
2018-05-02T23:24:30.861Z,4.70
2018-05-02T23:26:57.081Z,5.13
2018-05-02T23:29:23.720Z,5.50
2018-05-02T23:31:49.767Z,4.83
2018-05-02T23:34:15.790Z,4.90
2018-05-02T23:36:41.816Z,5.87
2018-05-02T23:39:07.853Z,5.50
2018-05-02T23:41:33.909Z,5.80
2018-05-02T23:43:59.942Z,5.70
2018-05-02T23:46:26.885Z,5.90
2018-05-02T23:48:52.905Z,5.70
2018-05-02T23:51:18.953Z,6.30
2018-05-02T23:53:44.965Z,6.73
2018-05-02T23:56:11.017Z,7.37
2018-05-02T23:58:37.073Z,8.20
